Time;durP1;ratioP1;P1;durP2;ratioP2;P2;SDS_P1;SDS_P2;PMS_P1;PMS_P2;Temp;Humidity;BMP_temperature;BMP_pressure;BME280_temperature;BME280_humidity;BME280_pressure;Samples;Min_cycle;Max_cycle;Signal;HPM_P1;HPM_P2
2023/05/10 00:01:13;;;;;;;25.73;22.08;;;13.50;99.90;;;;;;4984289;28;20157;-80
2023/05/10 00:03:39;;;;;;;17.73;16.02;;;13.50;99.90;;;;;;4984097;28;20093;-80
2023/05/10 00:06:05;;;;;;;36.72;23.30;;;13.50;99.90;;;;;;5003997;28;20054;-80
2023/05/10 00:08:31;;;;;;;39.03;22.25;;;13.50;99.90;;;;;;4985067;28;20561;-80
2023/05/10 00:10:57;;;;;;;21.30;17.55;;;13.50;99.90;;;;;;4970600;28;20042;-80
2023/05/10 00:13:23;;;;;;;15.73;14.30;;;13.40;99.90;;;;;;5005146;28;20046;-80
2023/05/10 00:15:49;;;;;;;18.38;16.50;;;13.40;99.90;;;;;;4968504;28;20050;-80
2023/05/10 00:18:15;;;;;;;17.40;15.65;;;13.40;99.90;;;;;;5004652;28;20133;-80
2023/05/10 00:20:41;;;;;;;17.25;15.57;;;13.40;99.90;;;;;;4988593;28;20225;-80
2023/05/10 00:23:07;;;;;;;17.05;15.43;;;13.40;99.90;;;;;;4994840;28;20065;-79
2023/05/10 00:25:32;;;;;;;17.58;15.70;;;13.40;99.90;;;;;;4958720;28;20524;-80
2023/05/10 00:28:02;;;;;;;18.15;16.35;;;13.40;99.90;;;;;;4973679;28;20046;-79
2023/05/10 00:30:28;;;;;;;16.73;15.13;;;13.40;99.90;;;;;;4978720;28;20520;-80
2023/05/10 00:32:53;;;;;;;19.65;17.13;;;13.40;99.90;;;;;;4971576;28;20073;-80
2023/05/10 00:35:21;;;;;;;16.67;15.07;;;13.40;99.90;;;;;;4985296;28;20426;-80
2023/05/10 00:37:50;;;;;;;24.80;19.05;;;13.40;99.90;;;;;;4974142;28;20089;-80
2023/05/10 00:40:16;;;;;;;19.75;16.08;;;13.40;99.90;;;;;;4971640;28;20112;-80
2023/05/10 00:42:42;;;;;;;21.92;18.00;;;13.40;99.90;;;;;;5004911;28;20516;-80
2023/05/10 00:45:08;;;;;;;17.77;16.08;;;13.40;99.90;;;;;;4970260;28;20045;-80
2023/05/10 00:47:34;;;;;;;19.27;17.23;;;13.40;99.90;;;;;;5005608;28;20038;-80
2023/05/10 00:50:00;;;;;;;17.98;16.17;;;13.40;99.90;;;;;;5004395;28;20084;-81
2023/05/10 00:52:28;;;;;;;16.17;14.57;;;13.40;99.90;;;;;;4978707;28;20045;-80
2023/05/10 00:54:58;;;;;;;17.15;15.15;;;13.30;99.90;;;;;;4986870;28;20038;-79
2023/05/10 00:57:24;;;;;;;19.17;16.38;;;13.30;99.90;;;;;;4970645;28;20046;-80
2023/05/10 00:59:51;;;;;;;17.55;15.70;;;13.30;99.90;;;;;;4985935;28;20042;-80
2023/05/10 01:02:17;;;;;;;15.82;14.23;;;13.30;99.90;;;;;;5005972;28;20149;-79
2023/05/10 01:04:43;;;;;;;17.50;15.70;;;13.30;99.90;;;;;;4971791;28;20612;-79
2023/05/10 01:07:09;;;;;;;38.75;19.70;;;13.20;99.90;;;;;;4974071;28;20401;-80
2023/05/10 01:09:35;;;;;;;15.48;13.90;;;13.30;99.90;;;;;;4988079;28;20077;-80
2023/05/10 01:12:02;;;;;;;15.93;14.43;;;13.30;99.90;;;;;;4969270;28;20056;-79
2023/05/10 01:14:28;;;;;;;17.70;15.80;;;13.30;99.90;;;;;;5005208;28;20068;-80
2023/05/10 01:16:55;;;;;;;16.45;14.80;;;13.30;99.90;;;;;;5001242;28;20049;-80
2023/05/10 01:19:27;;;;;;;18.20;14.80;;;13.30;99.90;;;;;;4990553;28;20042;-80
2023/05/10 01:22:14;;;;;;;17.00;15.25;;;13.10;99.90;;;;;;4987488;28;20049;-80
2023/05/10 01:24:56;;;;;;;16.02;14.43;;;13.20;99.90;;;;;;5003496;28;20129;-80
2023/05/10 01:27:49;;;;;;;46.08;22.33;;;13.20;99.90;;;;;;4963106;28;20049;-80
2023/05/10 01:30:26;;;;;;;14.77;13.27;;;13.20;99.90;;;;;;4997920;28;20058;-81
2023/05/10 01:33:07;;;;;;;21.60;16.25;;;13.20;99.90;;;;;;4978958;28;20054;-80
2023/05/10 01:35:55;;;;;;;34.53;18.77;;;13.20;99.90;;;;;;4980199;28;20066;-81
2023/05/10 01:38:33;;;;;;;15.85;13.88;;;13.20;99.90;;;;;;4984076;28;20057;-80
2023/05/10 01:41:18;;;;;;;14.30;12.80;;;13.20;99.90;;;;;;4981175;28;20041;-81
2023/05/10 01:44:09;;;;;;;16.42;14.73;;;13.20;99.90;;;;;;4981678;28;20053;-81
2023/05/10 01:46:42;;;;;;;;;;;13.20;99.90;;;;;;4982316;28;20254;-81
2023/05/10 01:49:18;;;;;;;19.55;15.90;;;13.20;99.90;;;;;;4982497;28;19967;-80
2023/05/10 01:51:55;;;;;;;25.88;17.35;;;13.20;99.90;;;;;;4963530;28;20054;-79
2023/05/10 01:54:28;;;;;;;36.83;19.45;;;13.20;99.90;;;;;;4980258;28;20163;-80
2023/05/10 01:57:05;;;;;;;28.00;17.75;;;13.20;99.90;;;;;;4987584;28;20049;-80
2023/05/10 01:59:40;;;;;;;36.58;20.58;;;13.20;99.90;;;;;;4996431;28;20104;-81
2023/05/10 02:02:11;;;;;;;32.38;17.98;;;13.20;99.90;;;;;;4983614;28;20056;-81
2023/05/10 02:04:40;;;;;;;41.65;20.92;;;13.20;99.90;;;;;;4965589;28;20049;-81
2023/05/10 02:07:07;;;;;;;29.40;17.75;;;13.10;99.90;;;;;;4982972;28;20782;-81
2023/05/10 02:09:35;;;;;;;39.75;20.38;;;13.20;99.90;;;;;;4990088;28;20544;-81
2023/05/10 02:12:04;;;;;;;32.60;18.55;;;13.10;99.90;;;;;;4966763;28;20315;-80
2023/05/10 02:14:36;;;;;;;15.93;14.33;;;13.10;99.90;;;;;;5000100;28;20060;-80
2023/05/10 02:17:07;;;;;;;17.33;15.35;;;13.10;99.90;;;;;;4965861;28;20054;-80
2023/05/10 02:19:36;;;;;;;17.73;14.13;;;13.10;99.90;;;;;;4982596;28;20050;-81
2023/05/10 02:22:03;;;;;;;21.73;15.70;;;13.10;99.90;;;;;;4963841;28;20057;-81
2023/05/10 02:24:33;;;;;;;32.45;18.88;;;13.10;99.90;;;;;;4957902;28;20058;-82
2023/05/10 02:27:00;;;;;;;23.10;17.13;;;13.10;99.90;;;;;;4973245;28;20069;-81
2023/05/10 02:29:29;;;;;;;31.17;18.80;;;13.10;99.90;;;;;;5003333;28;20061;-80
2023/05/10 02:31:57;;;;;;;15.35;13.77;;;13.10;99.90;;;;;;5002640;28;20125;-80
2023/05/10 02:34:25;;;;;;;14.65;13.07;;;13.10;99.90;;;;;;4982130;28;20141;-80
2023/05/10 02:36:54;;;;;;;17.17;15.18;;;13.10;99.90;;;;;;4980123;28;20049;-81
2023/05/10 02:39:24;;;;;;;15.43;13.93;;;13.10;99.90;;;;;;5005546;28;20057;-80
2023/05/10 02:41:51;;;;;;;16.40;14.73;;;13.00;99.90;;;;;;5001718;28;20056;-81
2023/05/10 02:44:19;;;;;;;32.17;19.80;;;13.10;99.90;;;;;;4991134;28;20037;-80
2023/05/10 02:46:46;;;;;;;17.85;16.05;;;13.00;99.90;;;;;;4999176;28;20046;-80
2023/05/10 02:49:12;;;;;;;15.55;13.95;;;13.10;99.90;;;;;;5008149;28;20760;-80
2023/05/10 02:51:45;;;;;;;15.65;14.13;;;13.00;99.90;;;;;;4980514;28;20496;-80
2023/05/10 02:54:16;;;;;;;14.93;13.43;;;13.00;99.90;;;;;;5002630;28;20376;-80
2023/05/10 02:56:56;;;;;;;21.20;16.67;;;13.00;99.90;;;;;;4980597;28;20041;-80
2023/05/10 02:59:22;;;;;;;16.08;14.27;;;13.00;99.90;;;;;;5002899;28;20397;-80
2023/05/10 03:01:48;;;;;;;15.75;14.00;;;13.00;99.90;;;;;;4996765;28;20125;-80
2023/05/10 03:04:13;;;;;;;17.33;15.63;;;13.00;99.90;;;;;;4964151;28;20460;-79
2023/05/10 03:06:40;;;;;;;28.48;18.10;;;13.00;99.90;;;;;;4964523;28;20072;-80
2023/05/10 03:09:07;;;;;;;18.83;16.80;;;13.00;99.90;;;;;;4979002;28;20180;-80
2023/05/10 03:11:36;;;;;;;16.05;14.52;;;13.00;99.90;;;;;;4979625;28;20061;-80
2023/05/10 03:14:27;;;;;;;33.00;20.30;;;13.00;99.90;;;;;;4996623;28;20150;-81
2023/05/10 03:17:14;;;;;;;15.82;14.27;;;13.00;99.90;;;;;;4978649;28;20053;-80
2023/05/10 03:20:06;;;;;;;13.88;12.48;;;13.00;99.90;;;;;;4981196;28;20049;-80
2023/05/10 03:22:36;;;;;;;14.43;13.10;;;13.00;99.90;;;;;;4996387;28;20046;-80
2023/05/10 03:25:08;;;;;;;14.57;13.18;;;13.00;99.90;;;;;;4980971;28;20050;-80
2023/05/10 03:27:36;;;;;;;15.63;14.00;;;12.90;99.90;;;;;;4979168;28;20080;-80
2023/05/10 03:30:02;;;;;;;14.73;13.32;;;12.90;99.90;;;;;;4978146;28;20056;-81
2023/05/10 03:32:31;;;;;;;13.70;12.05;;;12.90;99.90;;;;;;4978415;28;20042;-81
2023/05/10 03:34:57;;;;;;;19.42;14.35;;;12.90;99.90;;;;;;4979009;28;20046;-80
2023/05/10 03:37:23;;;;;;;20.83;14.13;;;12.90;99.90;;;;;;4975279;28;20489;-80
2023/05/10 03:39:49;;;;;;;15.07;13.02;;;12.90;99.90;;;;;;4962178;28;20052;-80
2023/05/10 03:42:15;;;;;;;13.93;12.20;;;12.90;99.90;;;;;;4971339;28;20138;-81
2023/05/10 03:44:40;;;;;;;21.05;15.25;;;12.80;99.90;;;;;;4978035;28;20053;-81
2023/05/10 03:47:06;;;;;;;19.08;13.35;;;12.90;99.90;;;;;;4995784;28;20037;-80
2023/05/10 03:49:32;;;;;;;20.13;14.05;;;12.80;99.90;;;;;;4980109;28;20657;-80
2023/05/10 03:51:58;;;;;;;12.32;10.63;;;12.90;99.90;;;;;;4977617;28;20468;-80
2023/05/10 03:54:24;;;;;;;13.43;11.27;;;12.80;99.90;;;;;;4946866;28;20057;-80
2023/05/10 03:56:50;;;;;;;10.40;9.40;;;12.80;99.90;;;;;;4979246;28;20054;-81
2023/05/10 03:59:16;;;;;;;12.25;10.70;;;12.80;99.90;;;;;;4978890;28;20068;-81
2023/05/10 04:01:42;;;;;;;11.32;10.18;;;12.80;99.90;;;;;;4979561;28;20269;-82
2023/05/10 04:04:07;;;;;;;12.52;11.20;;;12.80;99.90;;;;;;4955491;28;20103;-81
2023/05/10 04:06:33;;;;;;;13.27;11.30;;;12.80;99.90;;;;;;4963928;28;20042;-81
2023/05/10 04:09:01;;;;;;;11.73;10.55;;;12.70;99.90;;;;;;4981364;28;20049;-80
2023/05/10 04:11:27;;;;;;;12.20;10.85;;;12.70;99.90;;;;;;4980431;28;20066;-80
2023/05/10 04:13:53;;;;;;;21.77;15.48;;;12.70;99.90;;;;;;4976548;28;20195;-80
2023/05/10 04:16:19;;;;;;;17.80;13.38;;;12.70;99.90;;;;;;4977549;28;20061;-80
2023/05/10 04:18:45;;;;;;;13.63;12.27;;;12.70;99.90;;;;;;4977245;28;20137;-80
2023/05/10 04:21:14;;;;;;;19.85;16.05;;;12.70;99.90;;;;;;4980892;28;20295;-80
2023/05/10 04:23:40;;;;;;;15.52;14.02;;;12.80;99.90;;;;;;4979598;28;20058;-81
2023/05/10 04:26:09;;;;;;;15.93;14.38;;;12.70;99.90;;;;;;4980143;28;20695;-81
2023/05/10 04:28:35;;;;;;;24.63;17.65;;;12.70;99.90;;;;;;4995671;28;20042;-81
2023/05/10 04:31:09;;;;;;;15.63;14.02;;;12.70;99.90;;;;;;4958604;28;21033;-80
2023/05/10 04:33:37;;;;;;;14.80;13.40;;;12.70;99.90;;;;;;4950835;28;20046;-81
2023/05/10 04:36:03;;;;;;;14.57;13.18;;;12.70;99.90;;;;;;4979997;28;20054;-82
2023/05/10 04:38:30;;;;;;;18.55;14.75;;;12.70;99.90;;;;;;4964311;28;20042;-82
2023/05/10 04:41:05;;;;;;;17.83;15.00;;;12.70;99.90;;;;;;4979718;28;20045;-83
2023/05/10 04:43:31;;;;;;;12.43;11.32;;;12.70;99.90;;;;;;5002618;28;20660;-82
2023/05/10 04:45:57;;;;;;;13.50;12.13;;;12.70;99.90;;;;;;4980940;28;20042;-83
2023/05/10 04:48:23;;;;;;;24.73;16.73;;;12.70;99.90;;;;;;4965593;28;20117;-82
2023/05/10 04:50:48;;;;;;;14.90;13.07;;;12.70;99.90;;;;;;4984037;28;20077;-82
2023/05/10 04:53:14;;;;;;;13.95;12.13;;;12.70;99.90;;;;;;4983417;28;20511;-82
2023/05/10 04:55:40;;;;;;;17.58;14.10;;;12.70;99.90;;;;;;4982173;28;20046;-81
2023/05/10 04:58:06;;;;;;;17.70;14.48;;;12.70;99.90;;;;;;4978937;28;20054;-82
2023/05/10 05:00:35;;;;;;;13.27;12.05;;;12.70;99.90;;;;;;4964599;28;20062;-81
2023/05/10 05:03:01;;;;;;;15.32;13.02;;;12.70;99.90;;;;;;4987905;28;20108;-81
2023/05/10 05:05:27;;;;;;;14.15;12.77;;;12.80;99.90;;;;;;4994811;28;20484;-82
2023/05/10 05:07:53;;;;;;;17.05;14.18;;;12.70;99.90;;;;;;4982633;28;20053;-83
2023/05/10 05:10:18;;;;;;;15.00;11.98;;;12.80;99.90;;;;;;4980681;28;20045;-82
2023/05/10 05:12:44;;;;;;;18.85;14.55;;;12.80;99.90;;;;;;4964560;28;20041;-83
2023/05/10 05:15:10;;;;;;;19.27;15.07;;;12.80;99.90;;;;;;4976163;28;20238;-82
2023/05/10 05:17:36;;;;;;;15.18;13.63;;;12.80;99.90;;;;;;4961875;28;20054;-82
2023/05/10 05:20:06;;;;;;;12.65;11.35;;;12.80;99.90;;;;;;4961996;28;21521;-82
2023/05/10 05:22:31;;;;;;;16.23;13.57;;;12.80;99.90;;;;;;4979801;28;20042;-81
2023/05/10 05:25:02;;;;;;;13.30;11.98;;;12.80;99.90;;;;;;4979758;28;20107;-82
2023/05/10 05:27:28;;;;;;;19.52;14.35;;;12.80;99.90;;;;;;4960306;28;20057;-81
2023/05/10 05:29:55;;;;;;;12.23;11.00;;;12.80;99.90;;;;;;4963123;28;20046;-82
2023/05/10 05:32:21;;;;;;;16.75;13.65;;;12.80;99.90;;;;;;4996248;28;20058;-83
2023/05/10 05:34:48;;;;;;;17.25;13.95;;;12.80;99.90;;;;;;4980636;28;20061;-82
2023/05/10 05:37:20;;;;;;;19.92;14.60;;;12.80;99.90;;;;;;4978352;28;20050;-82
2023/05/10 05:39:46;;;;;;;15.77;13.98;;;12.90;99.90;;;;;;4977598;28;20497;-84
2023/05/10 05:42:13;;;;;;;14.57;12.30;;;12.90;99.90;;;;;;5003737;28;20054;-82
2023/05/10 05:44:40;;;;;;;13.65;12.25;;;12.90;99.90;;;;;;4979059;28;20058;-82
2023/05/10 05:47:06;;;;;;;13.70;11.73;;;12.90;99.90;;;;;;4978713;28;20061;-84
2023/05/10 05:49:32;;;;;;;11.23;10.10;;;12.90;99.90;;;;;;4978017;28;20054;-83
2023/05/10 05:52:03;;;;;;;11.88;10.75;;;12.90;99.90;;;;;;4997902;28;20565;-82
2023/05/10 05:54:32;;;;;;;11.75;10.55;;;12.90;99.90;;;;;;4980054;28;20078;-83
2023/05/10 05:57:01;;;;;;;16.08;11.75;;;12.90;99.90;;;;;;4960764;28;20074;-83
2023/05/10 05:59:27;;;;;;;12.00;10.65;;;12.90;99.90;;;;;;4979099;28;20560;-83
2023/05/10 06:01:53;;;;;;;18.83;13.38;;;12.90;99.90;;;;;;4963454;28;20105;-83
2023/05/10 06:04:19;;;;;;;19.42;14.07;;;12.90;99.90;;;;;;4976211;28;20093;-80
2023/05/10 06:06:45;;;;;;;13.63;11.43;;;12.90;99.90;;;;;;4977089;28;20050;-81
2023/05/10 06:09:11;;;;;;;15.23;11.52;;;12.90;99.90;;;;;;4977900;28;20052;-80
2023/05/10 06:11:37;;;;;;;17.95;13.18;;;13.00;99.90;;;;;;4979316;28;20501;-80
2023/05/10 06:14:04;;;;;;;12.38;11.15;;;13.00;99.90;;;;;;4978268;28;20043;-82
2023/05/10 06:16:31;;;;;;;15.15;12.05;;;13.00;99.90;;;;;;4961541;28;20061;-81
2023/05/10 06:18:56;;;;;;;16.02;13.18;;;13.00;99.90;;;;;;4971017;28;20072;-80
2023/05/10 06:21:22;;;;;;;14.18;11.48;;;13.00;99.90;;;;;;4963708;28;20046;-81
2023/05/10 06:23:48;;;;;;;11.25;9.52;;;13.10;99.90;;;;;;4957042;28;20050;-79
2023/05/10 06:26:14;;;;;;;11.10;8.70;;;13.10;99.90;;;;;;4968797;28;20053;-78
2023/05/10 06:28:40;;;;;;;7.47;6.63;;;13.00;99.90;;;;;;4978723;28;20039;-79
2023/05/10 06:31:11;;;;;;;8.52;7.18;;;13.10;99.90;;;;;;4979384;28;20058;-79
2023/05/10 06:33:37;;;;;;;8.40;6.50;;;13.10;99.90;;;;;;5000722;28;20108;-79
2023/05/10 06:36:03;;;;;;;8.43;6.80;;;13.10;99.90;;;;;;4977532;28;20693;-79
2023/05/10 06:38:29;;;;;;;8.88;6.57;;;13.10;99.90;;;;;;4962659;28;20046;-79
2023/05/10 06:40:55;;;;;;;8.88;6.53;;;13.10;99.90;;;;;;4977623;28;20145;-78
2023/05/10 06:43:24;;;;;;;6.45;5.15;;;13.10;99.90;;;;;;4976948;28;20076;-79
2023/05/10 06:45:53;;;;;;;8.43;7.03;;;13.10;99.90;;;;;;5000383;28;20058;-79
2023/05/10 06:48:19;;;;;;;9.63;6.60;;;13.10;99.90;;;;;;4977968;28;20049;-78
2023/05/10 06:50:44;;;;;;;7.45;5.75;;;13.10;99.90;;;;;;4978402;28;21717;-79
2023/05/10 06:53:11;;;;;;;9.13;6.80;;;13.10;99.90;;;;;;4947181;28;20069;-78
2023/05/10 06:55:37;;;;;;;9.18;7.20;;;13.10;99.90;;;;;;4978440;28;20772;-79
2023/05/10 06:58:03;;;;;;;7.97;6.90;;;13.20;99.90;;;;;;4959857;28;20046;-78
2023/05/10 07:00:29;;;;;;;8.55;6.35;;;13.20;99.90;;;;;;4961719;28;20054;-78
2023/05/10 07:02:55;;;;;;;10.60;7.68;;;13.20;99.90;;;;;;4961049;28;20049;-79
2023/05/10 07:05:21;;;;;;;9.43;7.15;;;13.20;99.90;;;;;;4977409;28;20053;-79
2023/05/10 07:07:47;;;;;;;8.77;6.15;;;13.20;99.90;;;;;;4994412;28;20058;-79
2023/05/10 07:10:13;;;;;;;11.70;7.72;;;13.20;99.90;;;;;;4977495;28;20812;-79
2023/05/10 07:12:39;;;;;;;12.35;8.43;;;13.20;99.90;;;;;;4976758;28;20054;-78
2023/05/10 07:15:06;;;;;;;8.35;7.25;;;13.30;99.90;;;;;;4977683;28;20068;-79
2023/05/10 07:17:33;;;;;;;10.00;8.48;;;13.30;99.90;;;;;;4976220;28;20647;-79
2023/05/10 07:19:59;;;;;;;9.98;7.75;;;13.30;99.90;;;;;;4977469;28;20065;-79
2023/05/10 07:22:26;;;;;;;10.05;7.97;;;13.30;99.90;;;;;;4954648;28;20053;-79
2023/05/10 07:24:52;;;;;;;10.30;7.43;;;13.30;99.90;;;;;;4992051;28;20133;-79
2023/05/10 07:27:17;;;;;;;6.95;6.05;;;13.30;99.90;;;;;;4961399;28;20358;-79
2023/05/10 07:29:43;;;;;;;10.25;7.28;;;13.30;99.90;;;;;;4961787;28;20034;-79
2023/05/10 07:32:09;;;;;;;9.88;7.82;;;13.40;99.90;;;;;;4953358;28;20054;-79
2023/05/10 07:34:35;;;;;;;12.90;8.05;;;13.40;99.90;;;;;;4977385;28;20050;-78
2023/05/10 07:37:01;;;;;;;9.15;7.45;;;13.40;99.90;;;;;;5001244;28;20042;-79
2023/05/10 07:39:27;;;;;;;8.55;6.90;;;13.40;99.90;;;;;;4977536;28;20073;-78
2023/05/10 07:41:54;;;;;;;9.13;6.78;;;13.40;99.90;;;;;;4967838;28;20038;-79
2023/05/10 07:44:21;;;;;;;15.85;9.75;;;13.40;99.90;;;;;;4977253;28;20073;-79
2023/05/10 07:46:48;;;;;;;9.07;7.07;;;13.40;99.90;;;;;;4944600;28;20126;-79
2023/05/10 07:49:14;;;;;;;9.55;7.15;;;13.40;99.90;;;;;;4992590;28;20511;-78
2023/05/10 07:51:40;;;;;;;7.60;5.88;;;13.40;99.90;;;;;;4976711;28;20047;-79
2023/05/10 07:54:06;;;;;;;7.43;6.18;;;13.40;99.90;;;;;;4977218;28;20066;-79
2023/05/10 07:56:32;;;;;;;8.65;6.25;;;13.40;99.90;;;;;;4961721;28;20290;-79
2023/05/10 07:58:59;;;;;;;8.02;6.18;;;13.40;99.90;;;;;;4976371;28;20109;-79
2023/05/10 08:01:25;;;;;;;8.45;6.40;;;13.40;99.90;;;;;;4959463;28;20168;-79
2023/05/10 08:03:53;;;;;;;7.80;5.28;;;13.40;99.90;;;;;;4973108;28;20053;-79
2023/05/10 08:06:22;;;;;;;7.88;6.13;;;13.40;99.90;;;;;;4979300;28;20485;-78
2023/05/10 08:08:53;;;;;;;10.35;7.18;;;13.50;99.90;;;;;;4982010;28;20116;-79
2023/05/10 08:11:22;;;;;;;10.32;6.63;;;13.40;99.90;;;;;;4961090;28;20054;-79
2023/05/10 08:13:49;;;;;;;10.68;7.40;;;13.40;99.90;;;;;;4960757;28;20050;-79
2023/05/10 08:16:19;;;;;;;8.38;6.75;;;13.40;99.90;;;;;;5002618;28;20050;-79
2023/05/10 08:18:46;;;;;;;8.18;6.85;;;13.40;99.90;;;;;;4966361;28;20064;-79
2023/05/10 08:21:13;;;;;;;7.65;6.00;;;13.50;99.90;;;;;;4980415;28;20134;-79
2023/05/10 08:23:39;;;;;;;7.55;6.25;;;13.50;99.90;;;;;;4980000;28;20106;-79
2023/05/10 08:26:05;;;;;;;6.82;5.03;;;13.60;99.90;;;;;;4979087;28;20457;-79
2023/05/10 08:28:31;;;;;;;7.03;5.53;;;13.60;99.90;;;;;;4982457;28;20045;-79
2023/05/10 08:30:58;;;;;;;8.55;5.63;;;13.70;99.90;;;;;;4988168;28;20054;-79
2023/05/10 08:33:25;;;;;;;9.20;6.70;;;13.80;99.90;;;;;;4988885;28;20057;-79
2023/05/10 08:35:52;;;;;;;9.85;6.55;;;13.80;99.90;;;;;;4980482;28;20059;-79
2023/05/10 08:38:18;;;;;;;8.93;7.13;;;13.80;99.90;;;;;;4971953;28;20186;-79
2023/05/10 08:40:44;;;;;;;8.43;6.85;;;13.90;99.90;;;;;;4995145;28;20046;-79
2023/05/10 08:43:12;;;;;;;8.20;7.22;;;13.80;99.90;;;;;;4958117;28;20050;-78
2023/05/10 08:45:40;;;;;;;10.25;5.97;;;13.80;99.90;;;;;;4961924;28;20097;-78
2023/05/10 08:48:07;;;;;;;8.13;6.80;;;13.80;99.90;;;;;;4980252;28;20501;-78
2023/05/10 08:50:38;;;;;;;8.30;6.68;;;13.90;99.90;;;;;;4979647;28;20056;-79
2023/05/10 08:53:10;;;;;;;7.20;5.40;;;13.90;99.90;;;;;;4979318;28;20109;-78
2023/05/10 08:55:38;;;;;;;7.45;6.55;;;14.00;99.90;;;;;;4961666;28;20089;-79
2023/05/10 08:58:05;;;;;;;9.15;6.07;;;14.00;99.90;;;;;;4995509;28;20109;-79
2023/05/10 09:00:37;;;;;;;10.10;6.15;;;14.00;99.90;;;;;;4978273;28;20205;-79
2023/05/10 09:03:04;;;;;;;10.93;6.65;;;14.00;99.90;;;;;;4981355;28;20077;-79
2023/05/10 09:05:30;;;;;;;7.57;6.50;;;14.00;99.90;;;;;;4978069;28;20053;-79
2023/05/10 09:07:56;;;;;;;8.85;5.78;;;14.10;99.90;;;;;;4959310;28;20129;-79
2023/05/10 09:10:25;;;;;;;7.53;6.18;;;14.20;99.90;;;;;;4980390;28;20065;-79
2023/05/10 09:12:53;;;;;;;8.67;6.77;;;14.30;99.90;;;;;;4963625;28;20038;-78
2023/05/10 09:15:19;;;;;;;8.00;6.10;;;14.30;99.90;;;;;;4986644;28;21366;-78
2023/05/10 09:17:47;;;;;;;8.35;6.45;;;14.30;99.90;;;;;;4967378;28;20622;-79
2023/05/10 09:20:13;;;;;;;5.68;5.10;;;14.30;99.90;;;;;;4980456;28;20084;-79
2023/05/10 09:22:39;;;;;;;7.32;5.63;;;14.40;99.90;;;;;;4980853;28;20156;-79
2023/05/10 09:25:13;;;;;;;9.50;6.22;;;14.40;99.90;;;;;;4998255;28;20500;-80
2023/05/10 09:27:45;;;;;;;7.45;6.60;;;14.50;99.90;;;;;;4980713;28;20061;-79
2023/05/10 09:30:27;;;;;;;9.23;6.50;;;14.50;99.90;;;;;;5000481;28;20108;-79
2023/05/10 09:32:54;;;;;;;7.43;5.93;;;14.60;99.90;;;;;;4980989;28;20168;-79
2023/05/10 09:35:22;;;;;;;9.32;8.32;;;14.60;99.90;;;;;;4982290;28;20092;-78
2023/05/10 09:37:50;;;;;;;8.68;7.75;;;14.60;99.90;;;;;;4981060;28;20045;-79
2023/05/10 09:40:21;;;;;;;8.43;7.40;;;14.60;99.90;;;;;;4982349;28;20085;-79
2023/05/10 09:43:02;;;;;;;8.88;6.78;;;14.50;99.90;;;;;;4981812;28;20096;-79
2023/05/10 09:45:30;;;;;;;6.75;5.63;;;14.60;99.90;;;;;;4967345;28;20054;-79
2023/05/10 09:47:57;;;;;;;5.95;4.30;;;14.70;99.90;;;;;;4981229;28;20753;-79
2023/05/10 09:50:23;;;;;;;5.85;5.03;;;14.80;99.90;;;;;;4983054;28;20054;-78
2023/05/10 09:53:00;;;;;;;6.78;4.88;;;14.80;99.90;;;;;;4982772;28;20129;-78
2023/05/10 09:55:41;;;;;;;6.15;5.55;;;14.90;99.90;;;;;;4984558;28;20054;-79
2023/05/10 09:58:10;;;;;;;7.78;7.00;;;14.80;99.90;;;;;;4983555;28;20046;-79
2023/05/10 10:00:44;;;;;;;8.75;6.13;;;14.80;99.90;;;;;;4960127;28;20049;-79
2023/05/10 10:03:17;;;;;;;8.50;6.60;;;14.70;99.90;;;;;;4957256;28;20049;-79
2023/05/10 10:05:44;;;;;;;6.50;5.50;;;14.80;99.90;;;;;;4967630;28;20061;-78
2023/05/10 10:08:11;;;;;;;6.90;6.25;;;14.80;99.90;;;;;;4981651;28;20132;-79
2023/05/10 10:10:39;;;;;;;5.03;4.53;;;14.80;99.90;;;;;;4983093;28;20135;-79
2023/05/10 10:13:06;;;;;;;6.72;6.03;;;14.90;99.90;;;;;;4980105;28;20511;-79
2023/05/10 10:15:34;;;;;;;6.97;6.28;;;15.00;99.90;;;;;;4983101;28;20556;-79
2023/05/10 10:18:04;;;;;;;6.55;5.45;;;15.10;99.90;;;;;;4972944;28;20116;-79
2023/05/10 10:20:30;;;;;;;9.25;7.13;;;15.20;99.90;;;;;;4962510;28;20084;-80
2023/05/10 10:22:56;;;;;;;7.00;5.63;;;15.30;99.90;;;;;;4980847;28;20859;-79
2023/05/10 10:25:22;;;;;;;7.25;6.05;;;15.40;99.90;;;;;;4981669;28;20046;-80
2023/05/10 10:27:51;;;;;;;8.35;6.35;;;15.50;99.90;;;;;;4977759;28;20034;-79
2023/05/10 10:30:49;;;;;;;7.35;6.60;;;15.50;99.90;;;;;;4998348;28;20038;-76
2023/05/10 10:33:48;;;;;;;9.40;6.10;;;15.60;99.90;;;;;;5001454;28;20081;-76
2023/05/10 10:36:15;;;;;;;7.43;6.73;;;15.50;99.90;;;;;;5004988;28;20042;-81
2023/05/10 10:38:47;;;;;;;7.93;5.40;;;15.50;99.90;;;;;;4996847;28;20045;-79
2023/05/10 10:41:29;;;;;;;6.82;6.22;;;15.50;99.90;;;;;;4999166;28;20042;-79
2023/05/10 10:44:26;;;;;;;7.25;5.93;;;15.50;99.90;;;;;;5001722;28;20053;-79
2023/05/10 10:47:18;;;;;;;8.40;6.50;;;15.40;99.90;;;;;;4979247;28;20066;-79
2023/05/10 10:49:51;;;;;;;5.63;4.82;;;15.40;99.90;;;;;;4988383;28;20127;-79
2023/05/10 10:52:46;;;;;;;6.85;6.07;;;15.40;99.90;;;;;;4998760;28;20523;-79
2023/05/10 10:55:14;;;;;;;6.57;5.82;;;15.40;99.90;;;;;;4960435;28;20528;-79
2023/05/10 10:58:00;;;;;;;6.75;5.90;;;15.40;99.90;;;;;;4980790;28;20600;-80
2023/05/10 11:00:35;;;;;;;7.45;6.07;;;15.40;99.90;;;;;;4990273;28;20053;-79
2023/05/10 11:03:08;;;;;;;6.30;5.60;;;15.40;99.90;;;;;;4964204;28;20089;-79
2023/05/10 11:05:44;;;;;;;6.93;6.15;;;15.30;99.90;;;;;;4964537;28;20211;-79
2023/05/10 11:08:33;;;;;;;7.28;5.72;;;15.30;99.90;;;;;;4979490;28;20448;-79
2023/05/10 11:10:58;;;;;;;6.60;5.90;;;15.40;99.90;;;;;;4963977;28;20054;-80
2023/05/10 11:13:29;;;;;;;7.30;5.80;;;15.40;99.90;;;;;;4996925;28;20108;-79
2023/05/10 11:15:56;;;;;;;;;;;15.40;99.90;;;;;;4979695;28;20509;-79
2023/05/10 11:18:28;;;;;;;6.75;6.15;;;15.50;99.90;;;;;;5005898;28;20376;-79
2023/05/10 11:21:04;;;;;;;8.07;7.28;;;15.50;99.90;;;;;;4972946;28;20050;-79
2023/05/10 11:23:42;;;;;;;7.28;5.95;;;15.50;99.90;;;;;;4994717;28;20060;-79
2023/05/10 11:26:09;;;;;;;7.00;6.03;;;15.60;99.90;;;;;;4965411;28;20065;-78
2023/05/10 11:28:41;;;;;;;5.90;5.30;;;15.50;99.90;;;;;;4962655;28;20192;-79
2023/05/10 11:31:07;;;;;;;6.93;5.88;;;15.50;99.90;;;;;;5002782;28;20536;-79
2023/05/10 11:33:46;;;;;;;8.43;7.05;;;15.60;99.90;;;;;;4964280;28;20534;-79
2023/05/10 11:36:14;;;;;;;9.30;6.28;;;15.60;99.90;;;;;;5005451;28;20133;-79
2023/05/10 11:38:40;;;;;;;8.38;6.68;;;15.60;99.90;;;;;;4962261;28;20054;-78
2023/05/10 11:41:12;;;;;;;6.55;5.30;;;15.60;99.90;;;;;;4964590;28;20876;-79
2023/05/10 11:43:41;;;;;;;7.13;6.43;;;15.60;99.90;;;;;;5008712;28;20053;-79
2023/05/10 11:46:10;;;;;;;8.70;6.43;;;15.60;99.90;;;;;;4980266;28;20048;-78
2023/05/10 11:48:38;;;;;;;8.73;7.72;;;15.60;99.90;;;;;;4977318;28;20125;-79
2023/05/10 11:51:04;;;;;;;8.05;6.53;;;15.70;99.90;;;;;;4972528;28;20045;-79
2023/05/10 11:53:32;;;;;;;7.90;5.28;;;15.70;99.90;;;;;;4979668;28;20089;-79
2023/05/10 11:56:11;;;;;;;6.95;6.18;;;15.70;99.90;;;;;;4964049;28;20080;-79
2023/05/10 11:58:38;;;;;;;7.43;6.47;;;15.80;99.90;;;;;;5002627;28;20089;-79
2023/05/10 12:01:06;;;;;;;7.22;6.05;;;15.80;99.90;;;;;;4981491;28;20608;-79
2023/05/10 12:03:32;;;;;;;7.55;6.85;;;15.80;99.90;;;;;;4980258;28;20084;-79
2023/05/10 12:06:00;;;;;;;6.90;6.20;;;15.80;99.90;;;;;;4954308;28;20401;-78
2023/05/10 12:08:28;;;;;;;7.50;6.32;;;15.80;99.90;;;;;;4979817;28;20054;-79
2023/05/10 12:11:04;;;;;;;7.63;6.55;;;15.80;99.90;;;;;;5002382;28;20496;-79
2023/05/10 12:13:29;;;;;;;7.20;6.50;;;15.70;99.90;;;;;;4977114;28;20413;-79
2023/05/10 12:15:59;;;;;;;8.00;7.20;;;15.60;99.90;;;;;;4964137;28;20057;-78
2023/05/10 12:18:25;;;;;;;8.95;8.05;;;15.50;99.90;;;;;;4978467;28;20076;-79
2023/05/10 12:20:54;;;;;;;11.15;10.02;;;15.50;99.90;;;;;;4979542;28;20081;-78
2023/05/10 12:23:20;;;;;;;12.70;10.95;;;15.40;99.90;;;;;;4963901;28;20073;-78
2023/05/10 12:25:46;;;;;;;10.63;9.45;;;15.40;99.90;;;;;;4980342;28;20045;-78
2023/05/10 12:28:12;;;;;;;8.57;7.55;;;15.30;99.90;;;;;;4977562;28;20058;-79
2023/05/10 12:30:38;;;;;;;8.80;7.35;;;15.30;99.90;;;;;;4949765;28;20079;-78
2023/05/10 12:33:10;;;;;;;7.57;6.68;;;15.30;99.90;;;;;;4962204;28;20180;-78
2023/05/10 12:35:53;;;;;;;7.50;6.70;;;15.30;99.90;;;;;;4961029;28;20116;-79
2023/05/10 12:38:39;;;;;;;7.18;6.28;;;15.30;99.90;;;;;;4979675;28;20054;-79
2023/05/10 12:41:10;;;;;;;9.05;7.38;;;15.30;99.90;;;;;;4980302;28;20061;-79
2023/05/10 12:43:37;;;;;;;8.40;7.47;;;15.20;99.90;;;;;;4985985;28;20060;-79
2023/05/10 12:46:14;;;;;;;9.20;7.47;;;15.20;99.90;;;;;;4995137;28;20050;-79